Time;durP1;ratioP1;P1;durP2;ratioP2;P2;SDS_P1;SDS_P2;PMS_P1;PMS_P2;Temp;Humidity;BMP_temperature;BMP_pressure;BME280_temperature;BME280_humidity;BME280_pressure;Samples;Min_cycle;Max_cycle;Signal;HPM_P1;HPM_P2
2022/01/25 00:30:43;;;;;;;15.70;8.98;;;;;;;4.50;74.80;102435.72;5028607;28;20052;-77
2022/01/25 00:33:51;;;;;;;9.55;8.55;;;;;;;4.40;74.34;102432.25;5009026;28;20459;-77
2022/01/25 00:36:55;;;;;;;13.60;8.90;;;;;;;4.57;73.90;102436.59;5019391;28;20041;-77
2022/01/25 00:39:59;;;;;;;9.73;7.25;;;;;;;4.62;74.47;102443.50;5028940;28;20056;-77
2022/01/25 00:43:02;;;;;;;;;;;;;;;4.61;74.27;102441.78;5027893;28;20091;-77
2022/01/25 00:46:09;;;;;;;10.07;8.50;;;;;;;4.68;74.33;102434.91;5027659;28;19971;-77
2022/01/25 00:49:21;;;;;;;11.25;8.10;;;;;;;4.63;74.09;102426.25;5027959;28;20626;-77
2022/01/25 00:55:46;;;;;;;14.57;9.45;;;;;;;4.63;73.67;102431.44;5028239;28;20036;-78
2022/01/25 00:58:50;;;;;;;13.05;9.90;;;;;;;4.58;72.76;102427.97;5027231;28;20051;-77
2022/01/25 01:02:01;;;;;;;15.65;9.65;;;;;;;4.58;73.08;102427.97;5027720;28;20047;-78
2022/01/25 01:05:05;;;;;;;12.82;10.30;;;;;;;4.59;72.87;102437.47;4986166;28;20084;-78
2022/01/25 01:08:09;;;;;;;13.25;8.85;;;;;;;4.49;72.80;102425.34;5007995;28;20152;-78
2022/01/25 01:11:15;;;;;;;;;;;;;;;4.56;72.96;102430.56;5001583;28;20531;-78
2022/01/25 01:14:48;;;;;;;17.00;11.07;;;;;;;4.57;72.91;102431.44;5027358;28;19924;-78
2022/01/25 01:43:57;;;;;;;14.18;10.88;;;;;;;4.25;73.43;102427.00;5027836;28;20044;-77
2022/01/25 01:47:20;;;;;;;12.02;9.32;;;;;;;4.14;74.24;102431.25;5028509;28;20125;-77
2022/01/25 01:50:30;;;;;;;;;;;;;;;4.26;74.25;102428.72;5027910;28;20060;-77
2022/01/25 01:53:35;;;;;;;12.13;10.27;;;;;;;4.23;74.43;102430.44;5027860;28;20387;-78
2022/01/25 01:56:41;;;;;;;17.35;12.70;;;;;;;4.34;73.93;102432.22;5026925;28;20099;-77
2022/01/25 01:59:44;;;;;;;13.98;9.85;;;;;;;4.27;73.90;102417.47;5027377;28;20052;-77
2022/01/25 02:02:49;;;;;;;13.40;11.93;;;;;;;4.34;73.72;102423.53;5027566;28;20051;-77
2022/01/25 02:05:52;;;;;;;17.75;10.90;;;;;;;4.33;73.73;102422.69;5028483;28;20040;-78
2022/01/25 02:08:55;;;;;;;16.55;13.48;;;;;;;4.45;74.04;102421.03;5027133;28;20107;-78
2022/01/25 02:11:59;;;;;;;15.95;11.77;;;;;;;4.42;73.99;102421.88;5025484;28;20526;-78
2022/01/25 02:15:06;;;;;;;16.58;11.05;;;;;;;4.34;74.36;102418.38;5018229;28;20052;-78
2022/01/25 02:24:51;;;;;;;14.00;11.07;;;;;;;4.12;74.06;102417.44;5031439;28;20099;-78
2022/01/25 02:27:54;;;;;;;20.08;13.68;;;;;;;4.24;74.56;102412.28;5030918;28;20102;-78
2022/01/25 02:30:59;;;;;;;13.23;11.73;;;;;;;4.32;74.34;102410.63;5018190;28;20103;-78
2022/01/25 02:34:02;;;;;;;14.70;10.73;;;;;;;4.19;74.14;102409.69;5030202;28;20154;-78
2022/01/25 02:37:07;;;;;;;;;;;;;;;3.82;75.57;102403.47;5031154;28;20049;-78
2022/01/25 02:40:10;;;;;;;14.73;11.00;;;;;;;3.76;75.55;102395.66;5029167;28;19963;-78
2022/01/25 02:43:17;;;;;;;22.95;12.45;;;;;;;3.61;75.58;102399.03;5031719;28;20114;-78
2022/01/25 02:48:29;;;;;;;14.60;11.80;;;;;;;3.81;75.44;102395.69;5030306;28;20447;-78
2022/01/25 02:49:44;;;;;;;13.20;11.43;;;;;;;3.73;75.70;102408.56;5030555;28;20044;-78
2022/01/25 02:52:47;;;;;;;;;;;;;;;3.89;75.41;102405.25;5018548;28;20242;-78
2022/01/25 02:55:51;;;;;;;16.90;12.30;;;;;;;4.04;74.37;102403.59;5018064;28;20327;-78
2022/01/25 02:58:55;;;;;;;21.90;13.13;;;;;;;4.14;74.60;102395.00;5030012;28;20076;-78
2022/01/25 03:01:59;;;;;;;17.38;11.80;;;;;;;3.89;74.99;102396.59;5030638;28;20044;-78
2022/01/25 03:05:04;;;;;;;14.55;12.98;;;;;;;3.93;75.31;102400.94;5030038;28;20075;-78
2022/01/25 03:08:11;;;;;;;13.57;12.05;;;;;;;3.68;75.87;102399.94;5029658;28;20118;-78
2022/01/25 03:11:33;;;;;;;12.88;10.70;;;;;;;3.71;76.26;102392.19;5029375;28;20471;-78
2022/01/25 03:15:22;;;;;;;15.60;11.68;;;;;;;3.72;76.14;102402.53;5029853;28;20052;-78
2022/01/25 03:21:36;;;;;;;16.35;11.27;;;;;;;3.94;74.80;102394.91;5029805;28;20095;-78
2022/01/25 03:24:40;;;;;;;17.17;13.82;;;;;;;3.94;75.34;102395.75;5029105;28;20116;-78
2022/01/25 03:27:43;;;;;;;20.70;15.13;;;;;;;3.86;75.91;102397.47;5030821;28;20098;-78
2022/01/25 03:30:48;;;;;;;17.08;14.68;;;;;;;3.88;75.26;102392.28;5029081;28;20091;-78
2022/01/25 03:33:51;;;;;;;16.60;14.02;;;;;;;3.80;75.61;102388.78;5017591;28;20448;-78
2022/01/25 03:36:55;;;;;;;17.30;15.30;;;;;;;3.60;76.43;102396.41;5005563;28;20048;-78
2022/01/25 03:39:58;;;;;;;;;;;;;;;3.74;76.07;102389.63;5028140;28;20043;-78
2022/01/25 03:43:05;;;;;;;17.58;13.70;;;;;;;3.67;76.22;102388.72;5029144;28;19936;-78
2022/01/25 03:46:16;;;;;;;17.58;14.50;;;;;;;3.39;76.92;102395.44;5029503;28;20049;-78
2022/01/25 03:52:41;;;;;;;14.00;12.60;;;;;;;3.90;75.27;102385.41;5028622;28;20048;-78
2022/01/25 03:55:46;;;;;;;17.10;13.00;;;;;;;3.69;75.46;102386.13;5028454;28;20045;-78
2022/01/25 03:58:51;;;;;;;16.35;11.88;;;;;;;3.60;76.14;102386.06;5029178;28;20056;-78
2022/01/25 04:01:54;;;;;;;18.80;12.80;;;;;;;3.79;75.65;102377.56;5030054;28;20089;-78
2022/01/25 04:05:00;;;;;;;;;;;;;;;3.78;75.74;102385.34;5029302;28;20048;-78
2022/01/25 04:08:04;;;;;;;17.67;13.82;;;;;;;3.84;75.57;102380.19;5009012;28;19963;-78
2022/01/25 04:11:08;;;;;;;17.63;14.40;;;;;;;3.92;74.99;102384.56;5025685;28;20072;-78
2022/01/25 04:14:11;;;;;;;;;;;;;;;3.87;75.31;102385.38;5020602;28;20055;-77
2022/01/25 04:17:19;;;;;;;19.38;14.98;;;;;;;3.91;75.52;102387.97;5034293;28;19940;-77
2022/01/25 04:20:27;;;;;;;17.25;15.18;;;;;;;3.40;76.68;102391.97;5033355;28;20048;-77
2022/01/25 04:26:55;;;;;;;16.38;14.27;;;;;;;3.39;77.08;102387.66;5033549;28;20049;-77
2022/01/25 04:30:00;;;;;;;15.77;13.77;;;;;;;2.95;78.48;102382.13;5032420;28;20049;-77
2022/01/25 04:33:04;;;;;;;17.88;15.98;;;;;;;2.96;78.77;102387.31;5022356;28;20091;-77
2022/01/25 04:49:47;;;;;;;17.30;14.83;;;;;;;3.32;77.55;102383.31;5034247;28;20052;-78
2022/01/25 04:53:02;;;;;;;15.45;13.60;;;;;;;3.44;76.97;102375.63;5044806;28;20440;-78
2022/01/25 04:56:17;;;;;;;14.73;13.05;;;;;;;3.56;76.81;102381.75;5033600;28;20052;-78
2022/01/25 05:02:49;;;;;;;17.05;13.77;;;;;;;3.66;76.36;102370.59;5029393;28;20456;-77
2022/01/25 05:06:09;;;;;;;19.65;15.02;;;;;;;3.61;76.91;102372.31;5029280;28;20048;-77
2022/01/25 05:09:19;;;;;;;16.75;13.40;;;;;;;3.62;76.66;102374.88;5018233;28;20071;-79
2022/01/25 05:19:21;;;;;;;16.63;13.93;;;;;;;3.68;76.39;102379.25;5027416;28;20048;-79
2022/01/25 05:22:29;;;;;;;19.02;13.25;;;;;;;3.72;76.16;102375.81;5027413;28;20047;-79
2022/01/25 05:25:32;;;;;;;14.63;12.90;;;;;;;3.57;76.18;102381.75;5027424;28;20424;-78
2022/01/25 05:28:35;;;;;;;;;;;;;;;3.16;77.98;102378.84;5025537;28;20080;-78
2022/01/25 05:31:39;;;;;;;19.85;14.25;;;;;;;3.19;78.20;102389.22;5026924;28;19923;-78
2022/01/25 05:34:43;;;;;;;17.52;12.20;;;;;;;3.44;76.93;102379.94;5027802;28;20099;-78
2022/01/25 05:37:46;;;;;;;19.77;14.73;;;;;;;3.37;76.73;102384.19;5028187;28;20060;-78
2022/01/25 05:41:01;;;;;;;17.55;14.00;;;;;;;3.53;76.78;102381.72;5028798;28;20056;-78
2022/01/25 05:47:18;;;;;;;16.17;13.45;;;;;;;3.55;76.57;102387.78;5028585;28;20069;-79
2022/01/25 05:50:22;;;;;;;16.27;13.85;;;;;;;3.55;76.62;102385.19;5020331;28;20095;-79
2022/01/25 05:53:26;;;;;;;24.33;17.25;;;;;;;3.53;76.26;102392.06;5033226;28;20507;-79
2022/01/25 05:56:31;;;;;;;36.17;27.00;;;;;;;3.53;76.76;102384.31;5032234;28;20550;-78
2022/01/25 05:59:37;;;;;;;23.10;18.33;;;;;;;3.52;76.48;102386.03;5031252;28;20556;-79
2022/01/25 06:02:45;;;;;;;21.05;18.70;;;;;;;3.58;76.68;102374.88;5007556;28;20095;-79
2022/01/25 06:05:50;;;;;;;25.98;19.70;;;;;;;3.52;76.50;102377.41;5011932;28;20056;-79
2022/01/25 06:08:54;;;;;;;20.50;17.00;;;;;;;3.39;76.51;102374.75;5011509;28;20115;-79
2022/01/25 06:11:58;;;;;;;20.90;16.90;;;;;;;3.12;77.33;102377.97;5012575;28;20104;-79
2022/01/25 06:15:01;;;;;;;23.27;17.20;;;;;;;2.99;78.62;102382.16;5001169;28;20076;-79
2022/01/25 06:18:05;;;;;;;23.77;17.13;;;;;;;3.16;77.74;102368.50;5006507;28;20048;-79
2022/01/25 06:21:08;;;;;;;19.77;15.38;;;;;;;3.36;77.02;102369.56;5031775;28;20044;-78
2022/01/25 06:24:11;;;;;;;;;;;;;;;3.41;76.99;102365.25;5031328;28;20561;-79
2022/01/25 06:27:15;;;;;;;18.77;15.00;;;;;;;3.27;77.12;102356.56;5030961;28;20423;-79
2022/01/25 06:30:20;;;;;;;23.17;16.92;;;;;;;3.11;77.49;102359.88;5013209;28;20539;-78
2022/01/25 06:33:30;;;;;;;24.42;19.00;;;;;;;2.83;78.68;102356.19;5026197;28;20095;-79
2022/01/25 06:36:37;;;;;;;18.65;15.20;;;;;;;2.80;79.01;102352.72;5019291;28;20072;-79
2022/01/25 06:39:41;;;;;;;;;;;;;;;2.95;78.77;102354.56;5032613;28;20052;-77
2022/01/25 06:42:44;;;;;;;22.10;17.60;;;;;;;2.77;79.34;102360.44;5032011;28;19916;-78
2022/01/25 06:45:55;;;;;;;25.40;19.35;;;;;;;2.81;78.99;102361.34;5020795;28;20060;-78
2022/01/25 06:48:59;;;;;;;21.83;19.05;;;;;;;2.92;79.25;102362.31;5020896;28;20052;-79
2022/01/25 06:52:02;;;;;;;;;;;;;;;3.06;78.60;102357.25;5033095;28;20973;-79
2022/01/25 06:55:08;;;;;;;23.63;18.42;;;;;;;2.99;78.49;102358.06;5031723;28;19920;-79
2022/01/25 06:58:12;;;;;;;22.45;17.98;;;;;;;2.80;78.77;102362.19;5030635;28;20139;-79
2022/01/25 07:01:17;;;;;;;;;;;;;;;2.95;78.58;102358.88;5030290;28;20495;-79
2022/01/25 07:04:24;;;;;;;26.13;20.60;;;;;;;3.01;78.02;102362.38;5030883;28;20399;-77
2022/01/25 07:07:30;;;;;;;24.60;18.38;;;;;;;3.01;78.45;102364.09;5020112;28;20036;-78
2022/01/25 07:10:33;;;;;;;23.35;18.13;;;;;;;3.19;78.06;102371.13;5031619;28;20154;-78
2022/01/25 07:13:37;;;;;;;27.23;21.25;;;;;;;3.22;77.46;102363.41;5030918;28;20056;-78
2022/01/25 07:16:40;;;;;;;25.45;18.13;;;;;;;3.17;77.51;102365.97;5028656;28;20044;-78
2022/01/25 07:20:06;;;;;;;21.77;17.45;;;;;;;2.94;78.01;102373.53;5029367;28;20048;-78
2022/01/25 07:23:19;;;;;;;21.75;16.88;;;;;;;2.84;78.71;102374.31;5029459;28;20048;-78
2022/01/25 07:26:51;;;;;;;24.45;19.80;;;;;;;2.61;79.42;102380.94;5029930;28;20408;-78
2022/01/25 07:29:56;;;;;;;24.02;19.02;;;;;;;2.61;79.45;102378.34;5024191;28;20084;-78
2022/01/25 07:33:05;;;;;;;24.27;17.45;;;;;;;2.80;78.64;102383.72;5018757;28;20175;-78
2022/01/25 07:36:08;;;;;;;23.30;19.55;;;;;;;2.95;78.21;102385.59;5025178;28;20168;-78
2022/01/25 07:39:12;;;;;;;26.25;18.95;;;;;;;3.08;78.21;102385.69;5030453;28;20522;-77
2022/01/25 07:42:17;;;;;;;21.77;18.02;;;;;;;3.08;78.03;102390.88;5030430;28;20043;-77
2022/01/25 07:45:29;;;;;;;23.90;16.98;;;;;;;3.13;77.88;102394.38;5017812;28;20099;-77
2022/01/25 07:48:32;;;;;;;21.58;18.05;;;;;;;3.22;77.21;102394.41;5030466;28;20048;-77
2022/01/25 07:51:36;;;;;;;25.58;17.95;;;;;;;3.17;77.38;102404.72;5031106;28;20116;-77
2022/01/25 07:54:39;;;;;;;21.70;17.45;;;;;;;3.11;77.39;102416.75;5031398;28;20064;-77
2022/01/25 07:57:43;;;;;;;24.77;18.27;;;;;;;3.14;77.49;102415.03;5029625;28;20057;-77
2022/01/25 08:00:48;;;;;;;23.77;18.83;;;;;;;3.13;77.73;102412.47;5030259;28;20172;-76
2022/01/25 08:03:53;;;;;;;27.02;20.75;;;;;;;3.10;77.26;102417.59;5017943;28;20582;-77
2022/01/25 08:06:57;;;;;;;25.83;17.77;;;;;;;3.11;77.66;102421.91;5006148;28;20064;-77
2022/01/25 08:10:00;;;;;;;21.95;17.50;;;;;;;3.10;77.91;102420.19;5006880;28;20037;-78
2022/01/25 08:13:04;;;;;;;22.80;18.27;;;;;;;3.17;77.85;102414.22;5015944;28;20116;-77
2022/01/25 08:16:08;;;;;;;23.13;18.60;;;;;;;3.15;77.93;102416.75;5029535;28;20496;-77
2022/01/25 08:19:12;;;;;;;21.30;16.45;;;;;;;3.16;77.64;102415.94;5030630;28;20508;-77
2022/01/25 08:22:18;;;;;;;21.27;17.52;;;;;;;3.22;77.43;102409.94;5030647;28;20048;-77
2022/01/25 08:25:22;;;;;;;22.80;18.98;;;;;;;3.21;77.45;102409.06;5029277;28;20044;-78
2022/01/25 08:28:26;;;;;;;29.20;20.08;;;;;;;3.17;77.23;102412.50;5025445;28;20055;-79
2022/01/25 08:31:30;;;;;;;25.17;18.90;;;;;;;3.19;77.53;102404.72;5028011;28;20134;-79
2022/01/25 08:34:34;;;;;;;25.30;17.02;;;;;;;2.99;78.60;102410.59;5017388;28;20515;-79
2022/01/25 08:37:37;;;;;;;23.17;18.60;;;;;;;3.03;78.45;102404.63;5028488;28;20404;-78
2022/01/25 08:40:41;;;;;;;22.52;17.33;;;;;;;3.02;78.26;102404.59;5028223;28;20432;-78
2022/01/25 08:43:45;;;;;;;26.13;18.98;;;;;;;3.13;78.17;102396.97;5029342;28;20400;-78
2022/01/25 08:50:12;;;;;;;25.60;17.23;;;;;;;3.12;77.72;102402.97;5045183;28;20068;-62
2022/01/25 08:53:24;;;;;;;21.70;17.70;;;;;;;3.14;77.45;102403.84;5035966;28;20103;-62
2022/01/25 08:56:30;;;;;;;22.90;19.48;;;;;;;3.15;77.93;102396.09;5034567;28;20574;-62
2022/01/25 08:59:34;;;;;;;25.67;18.48;;;;;;;3.17;78.15;102411.63;5048298;28;20047;-63
2022/01/25 09:02:39;;;;;;;22.92;17.92;;;;;;;3.08;78.01;102407.25;5048405;28;20131;-63
2022/01/25 09:05:43;;;;;;;23.73;18.83;;;;;;;2.88;78.10;102414.81;5046892;28;20048;-63
2022/01/25 09:08:47;;;;;;;;;;;;;;;2.92;78.60;102416.56;5047530;28;20106;-64
2022/01/25 09:11:50;;;;;;;24.55;17.38;;;;;;;2.93;78.63;102410.53;5026869;28;19923;-64
2022/01/25 09:14:54;;;;;;;22.08;16.45;;;;;;;2.88;78.84;102407.06;5028034;28;20134;-63
2022/01/25 09:17:57;;;;;;;;;;;;;;;2.98;78.87;102413.19;5016136;28;20055;-63
2022/01/25 09:21:00;;;;;;;22.75;16.98;;;;;;;2.98;77.82;102415.75;5003725;28;19995;-63
2022/01/25 09:24:04;;;;;;;21.02;16.05;;;;;;;3.10;77.71;102425.34;5007978;28;20072;-64
2022/01/25 09:27:12;;;;;;;23.75;16.33;;;;;;;3.14;77.21;102430.56;5026467;28;20112;-63
2022/01/25 09:30:21;;;;;;;22.73;17.95;;;;;;;2.61;79.18;102430.88;5012753;28;20044;-64
2022/01/25 09:33:27;;;;;;;24.45;17.70;;;;;;;2.69;79.44;102429.25;4994879;28;20056;-63
2022/01/25 09:36:33;;;;;;;30.30;18.08;;;;;;;2.86;78.92;102426.84;4995083;28;20044;-63
2022/01/25 09:39:37;;;;;;;23.60;17.08;;;;;;;2.90;78.34;102427.72;5008306;28;20486;-64
2022/01/25 09:42:41;;;;;;;;;;;;;;;2.70;78.79;102430.13;5028310;28;20095;-63
2022/01/25 09:45:47;;;;;;;21.95;16.63;;;;;;;2.93;78.34;102433.78;5027561;28;19924;-63
2022/01/25 09:48:52;;;;;;;20.52;15.50;;;;;;;3.00;77.94;102440.78;5027413;28;21017;-63
2022/01/25 09:51:55;;;;;;;23.02;16.10;;;;;;;2.86;77.71;102436.31;5014342;28;20052;-63
2022/01/25 09:55:02;;;;;;;25.17;17.05;;;;;;;2.67;78.47;102438.69;5014730;28;20136;-63
2022/01/25 09:58:07;;;;;;;22.88;16.50;;;;;;;2.94;78.33;102448.47;5014420;28;20067;-63
2022/01/25 10:01:11;;;;;;;20.80;15.10;;;;;;;3.09;77.00;102439.97;5014287;28;20091;-63
2022/01/25 10:04:37;;;;;;;21.27;15.55;;;;;;;3.21;76.68;102439.22;5016034;28;20565;-63
2022/01/25 10:07:41;;;;;;;20.30;15.00;;;;;;;3.16;76.29;102439.19;5017344;28;20073;-63
2022/01/25 10:10:46;;;;;;;;;;;;;;;3.19;76.30;102447.00;5008388;28;20068;-63
2022/01/25 10:13:54;;;;;;;23.00;15.60;;;;;;;3.35;76.48;102450.56;4996028;28;19924;-64
2022/01/25 10:16:58;;;;;;;25.42;17.73;;;;;;;3.22;76.78;102451.28;5007650;28;20133;-64
2022/01/25 10:20:01;;;;;;;24.20;15.82;;;;;;;3.26;76.46;102460.84;5008090;28;20630;-63
2022/01/25 10:23:18;;;;;;;21.48;15.93;;;;;;;3.24;76.96;102454.78;5015960;28;20141;-63
2022/01/25 10:26:23;;;;;;;22.92;16.00;;;;;;;3.30;77.02;102453.97;5025692;28;20036;-64
2022/01/25 10:29:35;;;;;;;16.40;13.45;;;;;;;3.17;76.33;102453.84;5014680;28;20433;-64
2022/01/25 10:32:39;;;;;;;19.65;13.48;;;;;;;2.78;77.80;102459.50;5014887;28;20485;-65
2022/01/25 10:35:43;;;;;;;18.38;13.07;;;;;;;2.87;77.48;102449.25;5029990;28;20041;-64
2022/01/25 10:38:49;;;;;;;16.77;13.48;;;;;;;2.97;77.95;102455.38;5031934;28;20052;-63
2022/01/25 10:42:10;;;;;;;17.15;13.73;;;;;;;2.76;78.04;102456.00;5031627;28;20056;-63
2022/01/25 10:45:17;;;;;;;21.25;13.77;;;;;;;2.90;77.49;102449.25;5030978;28;20047;-64
2022/01/25 10:48:29;;;;;;;22.33;13.43;;;;;;;2.97;77.49;102451.09;5017914;28;20045;-64
2022/01/25 10:51:38;;;;;;;17.45;13.63;;;;;;;3.03;77.22;102445.97;5030757;28;20099;-64
2022/01/25 10:54:41;;;;;;;22.05;15.15;;;;;;;3.02;77.46;102448.53;5031252;28;20112;-64
2022/01/25 10:57:56;;;;;;;19.27;15.73;;;;;;;2.98;77.42;102444.19;5011072;28;20045;-64
2022/01/25 11:00:59;;;;;;;23.23;18.15;;;;;;;2.52;79.13;102447.16;5011031;28;20645;-62
2022/01/25 11:04:07;;;;;;;23.30;17.17;;;;;;;2.35;80.37;102446.06;5002410;28;20060;-64
2022/01/25 11:07:11;;;;;;;21.30;15.93;;;;;;;2.18;80.34;102445.00;5029984;28;20502;-64
2022/01/25 11:10:19;;;;;;;22.15;14.27;;;;;;;2.53;78.97;102442.84;5030483;28;20048;-62
2022/01/25 11:16:33;;;;;;;19.42;14.73;;;;;;;3.11;77.62;102443.44;5030430;28;20107;-63
2022/01/25 11:19:37;;;;;;;22.42;16.52;;;;;;;3.05;77.54;102433.06;5030290;28;20422;-63
2022/01/25 11:22:41;;;;;;;;;;;;;;;3.10;76.70;102435.69;5031336;28;20080;-63
2022/01/25 11:25:45;;;;;;;;;;;;;;;3.14;76.94;102430.56;4999840;28;19935;-63
2022/01/25 11:28:49;;;;;;;20.83;14.52;;;;;;;3.14;77.36;102427.97;5010520;28;19916;-63
2022/01/25 11:32:03;;;;;;;17.92;14.05;;;;;;;3.25;76.74;102428.06;5010040;28;20049;-63
2022/01/25 11:35:10;;;;;;;20.42;14.18;;;;;;;3.28;76.76;102422.91;5009383;28;20057;-63
2022/01/25 11:38:13;;;;;;;18.15;14.18;;;;;;;2.97;77.68;102419.22;5010465;28;20100;-64
2022/01/25 11:41:21;;;;;;;22.50;15.55;;;;;;;3.11;77.65;102416.75;5010390;28;20099;-63
2022/01/25 11:44:27;;;;;;;21.05;15.15;;;;;;;3.08;77.47;102416.72;5016118;28;20187;-64
2022/01/25 11:47:36;;;;;;;19.95;14.95;;;;;;;3.24;76.79;102403.91;5029928;28;20056;-63
2022/01/25 11:50:43;;;;;;;20.23;14.32;;;;;;;3.06;77.18;102408.06;5029383;28;20132;-63
2022/01/25 11:53:50;;;;;;;18.77;14.73;;;;;;;3.25;77.37;102400.50;5017312;28;20582;-63
2022/01/25 11:57:08;;;;;;;20.48;14.30;;;;;;;3.24;76.44;102403.91;5030249;28;20039;-64
2022/01/25 12:00:44;;;;;;;21.23;14.95;;;;;;;3.36;76.39;102404.88;5030014;28;20091;-63
2022/01/25 12:03:51;;;;;;;24.05;16.13;;;;;;;3.23;76.22;102411.69;4997884;28;20088;-64
2022/01/25 12:07:01;;;;;;;20.45;15.32;;;;;;;3.31;76.00;102402.25;5009981;28;20466;-63
2022/01/25 12:10:30;;;;;;;19.58;16.40;;;;;;;3.13;77.14;102395.22;5008910;28;20099;-62
2022/01/25 12:13:33;;;;;;;26.75;19.42;;;;;;;3.03;77.21;102385.63;4998008;28;20135;-62
2022/01/25 12:16:47;;;;;;;25.33;16.55;;;;;;;3.09;77.17;102392.59;5009843;28;20095;-63
2022/01/25 12:19:59;;;;;;;23.75;16.08;;;;;;;3.09;76.98;102385.69;5028999;28;20454;-64
2022/01/25 12:23:10;;;;;;;27.40;15.77;;;;;;;3.13;77.25;102399.53;5017173;28;20664;-64
2022/01/25 12:26:54;;;;;;;19.52;15.98;;;;;;;3.26;77.32;102391.03;5013195;28;20052;-63
2022/01/25 12:30:08;;;;;;;22.02;16.45;;;;;;;3.45;76.39;102392.91;5012324;28;20048;-63
2022/01/25 12:33:23;;;;;;;22.35;15.73;;;;;;;3.56;76.38;102385.19;5012651;28;20685;-63
2022/01/25 12:36:35;;;;;;;26.60;17.75;;;;;;;3.60;75.79;102396.41;5009040;28;20099;-63
2022/01/25 12:39:39;;;;;;;21.88;16.98;;;;;;;3.58;76.25;102392.97;4985241;28;20053;-63
2022/01/25 12:42:45;;;;;;;22.08;17.65;;;;;;;3.50;76.30;102386.00;4997143;28;20091;-64
2022/01/25 12:46:00;;;;;;;18.15;14.05;;;;;;;3.42;76.64;102382.53;5024229;28;20052;-63
2022/01/25 12:49:10;;;;;;;23.83;16.02;;;;;;;3.47;76.77;102386.00;5028070;28;20106;-63
2022/01/25 12:52:17;;;;;;;22.25;16.38;;;;;;;3.44;76.64;102379.94;5026034;28;20076;-64
2022/01/25 12:55:29;;;;;;;18.60;14.65;;;;;;;3.51;76.54;102373.97;5026008;28;20195;-64
2022/01/25 12:58:34;;;;;;;21.27;15.68;;;;;;;3.49;76.32;102371.34;5026345;28;20119;-64
2022/01/25 13:01:41;;;;;;;23.08;16.23;;;;;;;3.51;77.01;102366.22;5004710;28;20118;-64
2022/01/25 13:04:44;;;;;;;23.17;17.08;;;;;;;3.47;76.48;102367.88;5028105;28;20091;-64
2022/01/25 13:07:48;;;;;;;;;;;;;;;3.22;77.20;102366.88;5028594;28;20509;-64
2022/01/25 13:10:56;;;;;;;23.48;17.95;;;;;;;3.35;77.45;102362.66;5028276;28;19992;-64
2022/01/25 13:14:13;;;;;;;22.67;17.13;;;;;;;3.47;76.66;102370.47;5016519;28;20457;-64
2022/01/25 13:17:23;;;;;;;24.60;17.63;;;;;;;3.46;77.10;102353.22;5015921;28;20072;-64
2022/01/25 13:20:26;;;;;;;26.63;16.70;;;;;;;3.50;76.99;102364.47;5004799;28;20067;-63
2022/01/25 13:23:31;;;;;;;26.75;18.27;;;;;;;3.50;76.56;102359.28;5016311;28;20087;-63
2022/01/25 13:26:39;;;;;;;25.05;18.85;;;;;;;3.47;76.97;102359.25;5008881;28;20045;-63
2022/01/25 13:33:20;;;;;;;25.08;19.05;;;;;;;3.47;76.86;102354.94;5017889;28;20072;-63
2022/01/25 13:36:25;;;;;;;23.05;17.38;;;;;;;3.38;77.47;102365.25;5028229;28;20446;-63
2022/01/25 13:39:30;;;;;;;20.80;17.08;;;;;;;3.45;77.44;102361.00;5016460;28;20096;-63
2022/01/25 13:43:18;;;;;;;25.33;18.27;;;;;;;3.43;76.84;102360.97;5027561;28;20053;-64
2022/01/25 13:46:25;;;;;;;25.73;19.05;;;;;;;3.39;77.01;102359.22;5028236;28;20040;-62
2022/01/25 13:49:32;;;;;;;25.23;18.35;;;;;;;3.32;77.39;102357.47;5015781;28;20071;-63
2022/01/25 13:52:35;;;;;;;28.88;18.48;;;;;;;3.41;77.51;102349.75;5007560;28;20056;-62
2022/01/25 13:55:46;;;;;;;;;;;;;;;3.55;77.20;102351.56;5023776;28;20438;-63
2022/01/25 13:58:51;;;;;;;26.85;17.85;;;;;;;3.65;77.05;102343.88;5026797;28;19958;-63
2022/01/25 14:01:54;;;;;;;21.20;16.30;;;;;;;3.63;76.83;102342.13;5027914;28;20052;-64
2022/01/25 14:05:01;;;;;;;25.58;19.33;;;;;;;3.45;77.47;102350.66;5014526;28;20126;-63
2022/01/25 14:08:05;;;;;;;25.42;18.67;;;;;;;3.37;78.08;102352.31;5025067;28;20090;-64
2022/01/25 14:11:34;;;;;;;28.25;19.52;;;;;;;3.29;78.31;102353.97;5030322;28;20045;-63
2022/01/25 14:21:55;;;;;;;26.92;18.38;;;;;;;3.47;77.88;102354.09;5031074;28;20103;-63
2022/01/25 14:25:36;;;;;;;36.03;22.02;;;;;;;3.44;77.14;102344.59;5017132;28;20056;-63
2022/01/25 14:28:52;;;;;;;34.60;23.42;;;;;;;3.41;77.50;102344.56;5011800;28;20095;-64
2022/01/25 14:32:02;;;;;;;26.55;18.13;;;;;;;3.35;77.57;102344.56;5011995;28;20052;-64
2022/01/25 14:35:12;;;;;;;29.88;20.30;;;;;;;3.30;77.87;102341.06;5011854;28;20056;-64
2022/01/25 14:38:33;;;;;;;30.27;20.08;;;;;;;3.40;78.03;102337.69;4988854;28;20077;-64
2022/01/25 14:41:37;;;;;;;25.75;18.10;;;;;;;3.49;77.37;102335.16;4999278;28;20096;-64
2022/01/25 14:44:43;;;;;;;26.70;18.63;;;;;;;3.29;78.42;102331.59;4999716;28;20049;-64
2022/01/25 14:47:48;;;;;;;36.22;23.40;;;;;;;3.37;78.08;102340.25;4999930;28;20468;-64
2022/01/25 14:50:59;;;;;;;30.50;20.67;;;;;;;3.49;77.80;102352.41;4990860;28;20040;-63
2022/01/25 14:54:07;;;;;;;29.77;21.60;;;;;;;3.38;78.13;102347.16;5011546;28;20076;-64
2022/01/25 14:57:18;;;;;;;28.70;22.17;;;;;;;3.19;78.60;102348.75;5011476;28;20041;-64
2022/01/25 15:00:21;;;;;;;26.83;18.15;;;;;;;3.27;78.49;102361.72;5011328;28;20048;-63
2022/01/25 15:03:25;;;;;;;27.50;20.30;;;;;;;3.44;78.23;102360.09;5010807;28;20111;-63
2022/01/25 15:06:28;;;;;;;26.33;19.27;;;;;;;3.28;78.61;102355.69;4999125;28;20076;-63
2022/01/25 15:09:32;;;;;;;30.63;21.15;;;;;;;3.32;78.60;102354.88;5030811;28;20052;-64
2022/01/25 15:12:45;;;;;;;27.33;19.50;;;;;;;3.39;77.98;102359.22;5018121;28;20512;-63
2022/01/25 15:15:56;;;;;;;28.65;20.52;;;;;;;3.33;78.22;102351.44;5018096;28;20135;-64
2022/01/25 15:18:59;;;;;;;24.98;17.92;;;;;;;3.36;78.82;102351.44;5029880;28;20107;-64
2022/01/25 15:22:06;;;;;;;30.77;20.35;;;;;;;3.38;78.58;102349.75;5019582;28;20068;-63
2022/01/25 15:25:13;;;;;;;31.95;21.73;;;;;;;3.14;79.31;102358.19;5018242;28;20099;-64
2022/01/25 15:28:17;;;;;;;25.85;18.92;;;;;;;3.12;79.39;102364.19;5017448;28;20041;-64
2022/01/25 15:31:20;;;;;;;29.92;19.25;;;;;;;3.24;79.40;102356.53;5030295;28;20108;-64
2022/01/25 15:34:25;;;;;;;28.27;19.92;;;;;;;3.36;78.61;102358.34;5029607;28;20517;-64
2022/01/25 15:37:29;;;;;;;26.20;19.33;;;;;;;3.48;78.57;102361.88;5002387;28;20132;-64
2022/01/25 15:40:33;;;;;;;27.17;18.60;;;;;;;3.48;78.56;102356.72;5027423;28;20048;-63
2022/01/25 15:43:50;;;;;;;26.83;19.17;;;;;;;3.53;78.20;102355.88;5005002;28;20044;-64
2022/01/25 15:46:58;;;;;;;29.08;19.00;;;;;;;3.47;78.30;102354.94;5015469;28;20043;-64
2022/01/25 15:50:03;;;;;;;27.83;18.80;;;;;;;3.57;78.27;102350.69;5028109;28;20132;-63
2022/01/25 15:53:07;;;;;;;28.92;19.20;;;;;;;3.57;78.26;102355.00;5016473;28;20099;-64
2022/01/25 15:56:10;;;;;;;23.70;17.35;;;;;;;3.48;78.40;102351.53;5027481;28;20129;-64
2022/01/25 15:59:17;;;;;;;27.25;18.23;;;;;;;3.44;78.89;102354.06;5016606;28;20040;-63
2022/01/25 16:02:23;;;;;;;32.17;19.77;;;;;;;3.43;78.94;102358.38;5029204;28;20510;-63
2022/01/25 16:05:26;;;;;;;30.05;20.17;;;;;;;3.47;79.53;102356.69;5016875;28;20057;-63
2022/01/25 16:08:30;;;;;;;29.10;19.45;;;;;;;3.48;79.15;102348.94;5029624;28;20128;-63
2022/01/25 16:11:34;;;;;;;34.83;19.70;;;;;;;3.53;79.21;102353.28;5016141;28;20091;-63
2022/01/25 16:14:37;;;;;;;26.65;18.50;;;;;;;3.38;79.77;102354.03;5028701;28;20052;-63
2022/01/25 16:17:41;;;;;;;31.60;19.73;;;;;;;3.35;79.49;102348.84;5016055;28;20102;-62
2022/01/25 16:20:44;;;;;;;29.50;18.90;;;;;;;3.38;79.60;102352.34;4996527;28;20100;-62
2022/01/25 16:23:47;;;;;;;;;;;;;;;3.35;79.86;102349.72;4997537;28;20100;-63
2022/01/25 16:26:51;;;;;;;32.60;21.67;;;;;;;3.26;80.59;102354.84;4997086;28;19924;-62
2022/01/25 16:29:54;;;;;;;32.40;20.10;;;;;;;3.36;80.57;102358.34;5008608;28;20108;-63